Time;durP1;ratioP1;P1;durP2;ratioP2;P2;SDS_P1;SDS_P2;PMS_P1;PMS_P2;Temp;Humidity;BMP_temperature;BMP_pressure;BME280_temperature;BME280_humidity;BME280_pressure;Samples;Min_cycle;Max_cycle;Signal;HPM_P1;HPM_P2
2023/03/23 00:00:47;;;;;;;1.35;1.20;;;9.80;90.70;;;;;;2079166;28;20706;-61
2023/03/23 00:01:53;;;;;;;2.17;1.15;;;9.80;90.20;;;;;;2083928;28;20320;-59
2023/03/23 00:02:59;;;;;;;1.92;1.27;;;9.80;90.10;;;;;;2075983;28;20205;-60
2023/03/23 00:04:04;;;;;;;2.25;1.20;;;9.70;90.30;;;;;;2081730;28;20181;-61
2023/03/23 00:05:09;;;;;;;2.92;1.25;;;9.80;90.40;;;;;;2078039;28;20189;-60
2023/03/23 00:06:17;;;;;;;2.58;1.48;;;9.80;90.20;;;;;;2078276;28;20295;-61
2023/03/23 00:07:27;;;;;;;1.75;1.27;;;9.70;90.30;;;;;;2079011;28;20189;-61
2023/03/23 00:08:37;;;;;;;2.00;1.30;;;9.70;90.50;;;;;;2068328;28;20190;-62
2023/03/23 00:09:43;;;;;;;1.73;1.10;;;9.70;90.50;;;;;;2070310;28;20178;-58
2023/03/23 00:10:56;;;;;;;1.25;1.10;;;9.80;90.60;;;;;;2076810;28;20176;-61
2023/03/23 00:12:05;;;;;;;2.08;1.50;;;9.60;91.20;;;;;;2076840;28;20189;-59
2023/03/23 00:13:11;;;;;;;1.55;1.42;;;9.50;91.30;;;;;;2080028;28;20920;-60
2023/03/23 00:14:22;;;;;;;2.55;1.30;;;9.40;92.00;;;;;;2076836;28;20189;-59
2023/03/23 00:15:33;;;;;;;1.77;1.30;;;9.20;92.20;;;;;;2076711;28;20189;-59
2023/03/23 00:16:40;;;;;;;2.80;1.45;;;9.20;92.30;;;;;;2077196;28;20214;-60
2023/03/23 00:17:46;;;;;;;2.97;1.45;;;9.30;92.20;;;;;;2077044;28;20173;-60
2023/03/23 00:18:52;;;;;;;1.92;1.15;;;9.30;92.30;;;;;;2076149;28;20264;-60
2023/03/23 00:19:58;;;;;;;2.35;1.33;;;9.30;92.10;;;;;;2076550;28;20199;-60
2023/03/23 00:21:04;;;;;;;8.13;1.83;;;9.20;92.20;;;;;;2076701;28;20238;-58
2023/03/23 00:22:08;;;;;;;1.40;1.30;;;9.10;92.90;;;;;;2076428;28;20661;-60
2023/03/23 00:23:20;;;;;;;3.30;1.58;;;9.10;93.30;;;;;;2076723;28;20196;-59
2023/03/23 00:24:26;;;;;;;3.10;1.40;;;9.10;93.30;;;;;;2079170;28;20179;-60
2023/03/23 00:25:32;;;;;;;1.98;1.40;;;9.10;93.50;;;;;;2076830;28;20191;-60
2023/03/23 00:26:40;;;;;;;4.53;1.27;;;9.10;93.50;;;;;;2077497;28;20173;-60
2023/03/23 00:27:46;;;;;;;3.08;1.25;;;9.10;93.20;;;;;;2076861;28;20250;-60
2023/03/23 00:28:52;;;;;;;1.52;1.30;;;9.10;93.50;;;;;;2077141;28;20206;-57
2023/03/23 00:29:57;;;;;;;1.13;1.02;;;9.00;93.50;;;;;;2076702;28;20188;-58
2023/03/23 00:31:06;;;;;;;2.38;1.48;;;9.00;93.70;;;;;;2076626;28;20276;-58
2023/03/23 00:32:12;;;;;;;3.35;1.60;;;8.80;93.60;;;;;;2076389;28;20188;-60
2023/03/23 00:33:18;;;;;;;2.05;1.30;;;8.80;94.00;;;;;;2076871;28;20200;-60
2023/03/23 00:34:24;;;;;;;2.15;1.50;;;8.40;94.00;;;;;;2076992;28;20254;-60
2023/03/23 00:35:34;;;;;;;1.83;1.60;;;8.90;94.60;;;;;;2077013;28;20802;-60
2023/03/23 00:36:42;;;;;;;2.45;1.70;;;8.80;95.10;;;;;;2076747;28;20773;-60
2023/03/23 00:37:49;;;;;;;2.70;1.90;;;8.70;95.00;;;;;;2076519;28;20192;-60
2023/03/23 00:38:57;;;;;;;4.68;1.63;;;8.60;95.30;;;;;;2076755;28;20185;-60
2023/03/23 00:40:08;;;;;;;1.63;1.30;;;8.70;95.20;;;;;;2076657;28;20711;-59
2023/03/23 00:41:11;;;;;;;3.55;1.40;;;8.80;94.80;;;;;;2076966;28;20235;-59
2023/03/23 00:42:17;;;;;;;3.22;1.58;;;8.90;94.40;;;;;;2076428;28;20217;-57
2023/03/23 00:43:24;;;;;;;2.67;1.40;;;8.90;94.20;;;;;;2077033;28;20191;-58
2023/03/23 00:44:33;;;;;;;2.08;1.38;;;8.90;94.20;;;;;;2076328;28;20192;-59
2023/03/23 00:45:39;;;;;;;4.05;1.30;;;8.90;94.20;;;;;;2076452;28;20752;-60
2023/03/23 00:46:49;;;;;;;3.10;2.03;;;8.90;94.10;;;;;;2076509;28;20195;-60
2023/03/23 00:47:56;;;;;;;2.53;1.30;;;8.80;94.30;;;;;;2079279;28;20190;-59
2023/03/23 00:49:02;;;;;;;2.97;1.60;;;8.90;94.30;;;;;;2071625;28;20235;-58
2023/03/23 00:50:06;;;;;;;2.50;1.52;;;8.90;94.20;;;;;;2070106;28;20208;-59
2023/03/23 00:51:10;;;;;;;2.05;1.42;;;8.90;94.40;;;;;;2077922;28;20727;-57
2023/03/23 00:52:16;;;;;;;1.80;1.38;;;8.80;94.90;;;;;;2077888;28;20654;-59
2023/03/23 00:53:22;;;;;;;3.20;1.20;;;8.70;95.20;;;;;;2078277;28;20189;-60
2023/03/23 00:54:28;;;;;;;4.18;1.67;;;8.80;95.00;;;;;;2078065;28;20193;-60
2023/03/23 00:55:34;;;;;;;2.55;1.20;;;8.80;94.60;;;;;;2078167;28;20194;-57
2023/03/23 00:56:40;;;;;;;1.40;1.23;;;8.80;94.50;;;;;;2078026;28;20196;-59
2023/03/23 00:57:46;;;;;;;2.50;1.33;;;8.80;94.20;;;;;;2078172;28;20193;-58
2023/03/23 00:58:51;;;;;;;3.42;1.20;;;8.80;94.20;;;;;;2078144;28;20196;-60
2023/03/23 00:59:57;;;;;;;1.92;1.38;;;8.60;94.50;;;;;;2078397;28;20247;-59
2023/03/23 01:01:04;;;;;;;1.38;1.10;;;8.80;95.00;;;;;;2078145;28;20654;-58
2023/03/23 01:02:09;;;;;;;1.20;1.10;;;8.70;93.90;;;;;;2073174;28;20205;-60
2023/03/23 01:03:18;;;;;;;1.42;1.10;;;8.80;92.30;;;;;;2070046;28;20192;-58
2023/03/23 01:04:23;;;;;;;2.08;1.25;;;8.80;92.50;;;;;;2078051;28;20191;-60
2023/03/23 01:05:31;;;;;;;1.50;1.40;;;8.90;92.60;;;;;;2077829;28;20220;-60
2023/03/23 01:06:39;;;;;;;1.80;1.13;;;9.00;92.50;;;;;;2078029;28;20181;-60
2023/03/23 01:07:46;;;;;;;1.73;1.00;;;9.20;92.40;;;;;;2077866;28;20731;-60
2023/03/23 01:08:53;;;;;;;3.58;1.13;;;9.30;91.10;;;;;;2078271;28;20212;-60
2023/03/23 01:10:00;;;;;;;2.60;1.10;;;9.40;91.10;;;;;;2077904;28;20339;-57
2023/03/23 01:11:06;;;;;;;1.80;1.20;;;9.40;91.00;;;;;;2077999;28;20268;-60
2023/03/23 01:12:10;;;;;;;1.90;1.10;;;9.50;89.30;;;;;;2077038;28;20207;-60
2023/03/23 01:13:16;;;;;;;1.65;1.20;;;9.70;86.80;;;;;;2077396;28;20713;-60
2023/03/23 01:14:22;;;;;;;0.95;0.95;;;9.80;86.90;;;;;;2077982;28;20231;-60
2023/03/23 01:15:29;;;;;;;3.53;1.52;;;9.90;85.90;;;;;;2077773;28;20303;-58
2023/03/23 01:16:35;;;;;;;2.22;1.23;;;9.90;85.80;;;;;;2077832;28;20197;-58
2023/03/23 01:17:42;;;;;;;1.75;1.30;;;10.00;85.00;;;;;;2077907;28;20200;-60
2023/03/23 01:18:48;;;;;;;1.75;1.30;;;10.20;84.50;;;;;;2078104;28;20184;-60
2023/03/23 01:19:54;;;;;;;2.33;1.30;;;10.20;84.00;;;;;;2077837;28;20193;-60
2023/03/23 01:21:14;;;;;;;1.60;1.05;;;10.20;83.70;;;;;;2077863;28;20190;-60
2023/03/23 01:22:20;;;;;;;1.40;1.17;;;10.20;84.10;;;;;;2077582;28;20221;-60
2023/03/23 01:23:26;;;;;;;1.63;1.20;;;10.30;83.30;;;;;;2078126;28;20572;-58
2023/03/23 01:24:31;;;;;;;1.48;1.10;;;10.50;82.60;;;;;;2077971;28;20193;-60
2023/03/23 01:25:37;;;;;;;1.65;1.30;;;10.50;81.50;;;;;;2078091;28;20181;-60
2023/03/23 01:26:43;;;;;;;2.22;1.20;;;10.70;81.00;;;;;;2078262;28;20208;-59
2023/03/23 01:27:48;;;;;;;1.33;1.00;;;10.70;80.90;;;;;;2077989;28;20264;-60
2023/03/23 01:28:55;;;;;;;1.88;1.25;;;10.60;81.30;;;;;;2078001;28;20189;-60
2023/03/23 01:30:01;;;;;;;2.05;1.30;;;10.50;82.10;;;;;;2077728;28;20193;-59
2023/03/23 01:31:09;;;;;;;1.55;1.20;;;10.50;82.50;;;;;;2081446;28;20211;-60
2023/03/23 01:32:15;;;;;;;2.00;1.13;;;10.50;82.20;;;;;;2068808;28;20208;-60
2023/03/23 01:33:20;;;;;;;1.20;1.10;;;10.60;82.30;;;;;;2069793;28;20276;-60
2023/03/23 01:34:26;;;;;;;1.42;1.33;;;10.60;82.20;;;;;;2077706;28;20225;-59
2023/03/23 01:35:32;;;;;;;1.15;0.95;;;10.70;82.40;;;;;;2081088;28;20224;-60
2023/03/23 01:36:37;;;;;;;1.20;1.10;;;10.80;81.60;;;;;;2077702;28;20209;-58
2023/03/23 01:37:43;;;;;;;2.22;1.52;;;10.80;81.50;;;;;;2077805;28;20189;-60
2023/03/23 01:38:50;;;;;;;1.25;1.05;;;10.80;81.40;;;;;;2077612;28;20335;-60
2023/03/23 01:39:56;;;;;;;1.30;1.20;;;10.90;81.30;;;;;;2077912;28;20223;-60
2023/03/23 01:41:03;;;;;;;4.43;1.02;;;10.90;81.30;;;;;;2077572;28;20199;-59
2023/03/23 01:42:10;;;;;;;0.93;0.90;;;11.00;80.80;;;;;;2077484;28;20237;-62
2023/03/23 01:43:16;;;;;;;2.40;1.20;;;11.00;80.40;;;;;;2078065;28;20234;-60
2023/03/23 01:44:21;;;;;;;2.25;1.08;;;11.10;80.40;;;;;;2077752;28;20185;-60
2023/03/23 01:45:34;;;;;;;2.53;1.00;;;11.10;79.60;;;;;;2077758;28;20190;-57
2023/03/23 01:46:40;;;;;;;1.30;1.20;;;11.20;79.90;;;;;;2077546;28;20184;-58
2023/03/23 01:48:10;;;;;;;1.30;1.20;;;11.20;79.00;;;;;;2077773;28;20304;-57
2023/03/23 01:49:26;;;;;;;1.35;0.90;;;11.30;78.30;;;;;;2073568;28;20277;-57
2023/03/23 01:50:47;;;;;;;1.98;0.95;;;11.40;77.80;;;;;;2077469;28;20180;-60
2023/03/23 01:51:59;;;;;;;1.00;0.90;;;11.50;77.50;;;;;;2069383;28;20178;-58
2023/03/23 01:53:08;;;;;;;1.80;1.25;;;11.60;76.40;;;;;;2071237;28;20281;-59
2023/03/23 01:54:19;;;;;;;2.80;1.25;;;11.60;76.30;;;;;;2077501;28;20185;-59
2023/03/23 01:55:27;;;;;;;1.42;1.00;;;11.60;76.60;;;;;;2070820;28;20178;-59
2023/03/23 01:56:41;;;;;;;1.20;1.10;;;11.60;76.60;;;;;;2075783;28;20193;-59
2023/03/23 01:57:48;;;;;;;1.48;1.13;;;11.60;76.70;;;;;;2080206;28;20180;-57
2023/03/23 01:58:55;;;;;;;1.05;0.95;;;11.50;76.50;;;;;;2069486;28;20683;-58
2023/03/23 02:00:14;;;;;;;1.35;1.00;;;11.50;76.60;;;;;;2070879;28;20663;-57
2023/03/23 02:01:27;;;;;;;1.90;1.05;;;11.60;76.20;;;;;;2077124;28;20292;-59
2023/03/23 02:02:35;;;;;;;2.10;1.00;;;11.60;76.00;;;;;;2080233;28;20208;-59
2023/03/23 02:03:44;;;;;;;1.40;1.15;;;11.70;75.80;;;;;;2068991;28;20556;-58
2023/03/23 02:04:51;;;;;;;1.95;1.05;;;11.70;75.80;;;;;;2071495;28;20229;-59
2023/03/23 02:05:58;;;;;;;1.48;1.15;;;11.70;75.80;;;;;;2069293;28;20190;-57
2023/03/23 02:07:04;;;;;;;1.17;1.02;;;11.70;75.80;;;;;;2070969;28;20182;-58
2023/03/23 02:08:12;;;;;;;1.45;1.00;;;11.70;75.40;;;;;;2077388;28;20188;-59
2023/03/23 02:09:19;;;;;;;1.13;1.02;;;11.60;75.40;;;;;;2069096;28;20643;-58
2023/03/23 02:10:24;;;;;;;1.20;1.10;;;11.60;75.50;;;;;;2070621;28;20200;-59
2023/03/23 02:11:30;;;;;;;1.83;1.30;;;11.70;75.10;;;;;;2077449;28;20186;-57
2023/03/23 02:12:36;;;;;;;1.58;1.10;;;11.60;75.30;;;;;;2077698;28;20204;-59
2023/03/23 02:13:43;;;;;;;1.30;1.05;;;11.60;75.00;;;;;;2077801;28;20189;-59
2023/03/23 02:14:48;;;;;;;1.20;1.08;;;11.70;75.10;;;;;;2077788;28;20186;-59
2023/03/23 02:16:23;;;;;;;1.20;1.05;;;11.70;75.10;;;;;;2077653;28;20192;-60
2023/03/23 02:17:40;;;;;;;1.58;1.02;;;11.70;75.10;;;;;;2073139;28;20264;-59
2023/03/23 02:18:52;;;;;;;1.10;1.00;;;11.60;74.70;;;;;;2075326;28;20216;-59
2023/03/23 02:20:33;;;;;;;1.27;1.00;;;11.70;74.10;;;;;;2079947;28;20199;-60
2023/03/23 02:22:12;;;;;;;0.90;0.90;;;11.70;74.10;;;;;;2077221;28;20196;-63
2023/03/23 02:23:56;;;;;;;1.65;1.25;;;11.80;74.00;;;;;;2070364;28;20209;-60
2023/03/23 02:25:29;;;;;;;2.70;1.00;;;11.80;73.40;;;;;;2067264;28;20237;-60
2023/03/23 02:26:40;;;;;;;3.10;1.17;;;11.90;73.30;;;;;;2078259;28;20195;-61
2023/03/23 02:27:58;;;;;;;1.30;0.93;;;11.90;73.60;;;;;;2077947;28;20194;-61
2023/03/23 02:29:31;;;;;;;1.38;1.10;;;11.90;73.30;;;;;;2080605;28;20196;-60
2023/03/23 02:31:04;;;;;;;1.00;0.90;;;11.90;73.30;;;;;;2081446;28;20189;-60
2023/03/23 02:32:40;;;;;;;2.20;1.00;;;11.90;72.70;;;;;;2078449;28;20185;-60
2023/03/23 02:34:10;;;;;;;1.27;1.00;;;11.90;73.10;;;;;;2077799;28;20676;-61
2023/03/23 02:35:27;;;;;;;1.30;1.05;;;11.90;72.40;;;;;;2077443;28;20185;-60
2023/03/23 02:36:47;;;;;;;1.13;1.02;;;11.80;72.40;;;;;;2076899;28;20185;-61
2023/03/23 02:37:59;;;;;;;1.20;0.93;;;11.80;72.20;;;;;;2070948;28;20272;-61
2023/03/23 02:39:30;;;;;;;1.25;1.02;;;11.80;72.60;;;;;;2069690;28;20189;-61
2023/03/23 02:40:46;;;;;;;1.55;1.00;;;11.80;71.70;;;;;;2077484;28;20225;-61
2023/03/23 02:41:58;;;;;;;1.35;1.00;;;11.80;71.90;;;;;;2068361;28;20186;-60
2023/03/23 02:43:09;;;;;;;1.20;1.05;;;11.80;71.50;;;;;;2062862;28;20202;-61
2023/03/23 02:44:16;;;;;;;2.10;1.10;;;11.70;71.90;;;;;;2062585;28;20182;-60
2023/03/23 02:45:24;;;;;;;1.63;1.10;;;11.70;72.10;;;;;;2061943;28;20917;-61
2023/03/23 02:46:31;;;;;;;1.52;1.20;;;11.80;72.70;;;;;;2062173;28;20574;-61
2023/03/23 02:47:38;;;;;;;0.93;0.82;;;11.80;73.20;;;;;;2070199;28;20190;-60
2023/03/23 02:48:48;;;;;;;1.38;1.10;;;11.70;73.60;;;;;;2068522;28;20563;-61
2023/03/23 02:49:56;;;;;;;1.10;1.00;;;11.70;73.30;;;;;;2070287;28;20568;-61
2023/03/23 02:51:04;;;;;;;2.25;1.10;;;11.70;74.00;;;;;;2076640;28;20192;-59
2023/03/23 02:52:16;;;;;;;1.27;0.90;;;11.60;75.10;;;;;;2076440;28;20591;-61
2023/03/23 02:53:24;;;;;;;2.35;1.20;;;11.50;76.30;;;;;;2068675;28;20193;-61
2023/03/23 02:54:30;;;;;;;1.80;1.23;;;11.40;77.80;;;;;;2062057;28;20202;-60
2023/03/23 02:55:41;;;;;;;2.53;1.10;;;11.20;78.10;;;;;;2073489;28;20192;-61
2023/03/23 02:56:48;;;;;;;1.63;1.42;;;11.10;78.20;;;;;;2076932;28;20258;-61
2023/03/23 02:57:55;;;;;;;0.90;0.90;;;11.10;79.10;;;;;;2076667;28;20189;-61
2023/03/23 02:59:01;;;;;;;1.02;0.80;;;11.00;79.60;;;;;;2077338;28;20192;-60
2023/03/23 03:00:10;;;;;;;2.75;1.10;;;10.90;80.30;;;;;;2077098;28;20193;-61
2023/03/23 03:01:36;;;;;;;1.33;1.10;;;10.80;81.00;;;;;;2077101;28;20189;-61
2023/03/23 03:02:53;;;;;;;1.48;1.05;;;10.60;81.60;;;;;;2076950;28;20224;-60
2023/03/23 03:04:06;;;;;;;1.65;1.08;;;10.50;83.00;;;;;;2068573;28;20196;-61
2023/03/23 03:05:40;;;;;;;2.13;1.05;;;10.30;83.80;;;;;;2071028;28;20208;-61
2023/03/23 03:07:15;;;;;;;2.22;1.02;;;10.30;84.80;;;;;;2079099;28;20181;-61
2023/03/23 03:08:30;;;;;;;1.42;1.05;;;10.20;85.50;;;;;;2069126;28;20202;-60
2023/03/23 03:09:57;;;;;;;1.13;1.02;;;10.10;86.70;;;;;;2071219;28;20233;-61
2023/03/23 03:11:10;;;;;;;1.65;1.20;;;10.00;86.80;;;;;;2070283;28;20690;-61
2023/03/23 03:12:30;;;;;;;1.23;1.00;;;10.00;87.30;;;;;;2074173;28;20819;-58
2023/03/23 03:13:52;;;;;;;3.30;1.00;;;9.80;88.30;;;;;;2078551;28;20534;-60
2023/03/23 03:15:35;;;;;;;2.55;1.00;;;9.90;89.30;;;;;;2079078;28;20203;-60
2023/03/23 03:16:45;;;;;;;1.13;0.90;;;9.90;90.00;;;;;;2075367;28;20689;-61
2023/03/23 03:18:06;;;;;;;1.38;1.10;;;9.90;90.00;;;;;;2068303;28;20186;-60
2023/03/23 03:19:25;;;;;;;1.92;1.10;;;9.90;90.00;;;;;;2071529;28;20272;-61
2023/03/23 03:20:33;;;;;;;3.20;1.30;;;10.00;90.10;;;;;;2068275;28;20197;-60
2023/03/23 03:21:43;;;;;;;1.52;1.17;;;9.80;88.90;;;;;;2070286;28;20244;-61
2023/03/23 03:22:52;;;;;;;2.65;1.20;;;9.90;88.60;;;;;;2068171;28;20350;-61
2023/03/23 03:24:02;;;;;;;3.90;1.35;;;9.90;88.50;;;;;;2070236;28;20701;-60
2023/03/23 03:25:06;;;;;;;1.55;1.10;;;9.90;89.10;;;;;;2068262;28;20279;-59
2023/03/23 03:26:12;;;;;;;1.52;1.08;;;9.90;88.90;;;;;;2069049;28;20186;-60
2023/03/23 03:27:20;;;;;;;1.35;1.10;;;9.90;88.70;;;;;;2069079;28;20231;-59
2023/03/23 03:28:27;;;;;;;2.20;1.17;;;10.00;88.00;;;;;;2070222;28;20249;-60
2023/03/23 03:29:36;;;;;;;1.40;1.20;;;10.10;85.10;;;;;;2077094;28;20338;-60
2023/03/23 03:30:44;;;;;;;1.10;1.00;;;10.10;84.40;;;;;;2076405;28;20276;-60
2023/03/23 03:31:51;;;;;;;1.83;1.02;;;10.10;86.00;;;;;;2076302;28;20180;-59
2023/03/23 03:33:00;;;;;;;2.50;1.30;;;10.10;86.00;;;;;;2076868;28;20213;-60
2023/03/23 03:34:06;;;;;;;1.40;1.15;;;10.10;84.90;;;;;;2079704;28;20231;-60
2023/03/23 03:35:10;;;;;;;1.73;1.15;;;10.10;84.40;;;;;;2076600;28;20268;-60
2023/03/23 03:36:21;;;;;;;2.83;1.10;;;10.10;83.40;;;;;;2075347;28;20185;-60
2023/03/23 03:37:33;;;;;;;1.02;0.93;;;10.10;83.90;;;;;;2080443;28;20185;-60
2023/03/23 03:38:48;;;;;;;1.92;1.38;;;10.10;85.10;;;;;;2073652;28;20257;-60
2023/03/23 03:39:53;;;;;;;1.25;1.10;;;10.00;85.10;;;;;;2076339;28;20184;-60
2023/03/23 03:40:59;;;;;;;1.20;1.10;;;9.90;85.50;;;;;;2077016;28;20211;-60
2023/03/23 03:42:06;;;;;;;2.75;1.17;;;9.80;85.90;;;;;;2076639;28;20212;-60
2023/03/23 03:43:09;;;;;;;1.60;1.50;;;9.80;86.50;;;;;;2076163;28;20213;-60
2023/03/23 03:44:15;;;;;;;1.98;1.73;;;9.80;86.90;;;;;;2076501;28;20187;-58
2023/03/23 03:45:21;;;;;;;1.60;1.20;;;9.70;87.70;;;;;;2076866;28;20195;-60
2023/03/23 03:46:29;;;;;;;3.03;1.58;;;9.60;88.00;;;;;;2077118;28;20220;-60
2023/03/23 03:47:35;;;;;;;1.80;0.98;;;9.60;88.50;;;;;;2080192;28;20650;-60
2023/03/23 03:48:41;;;;;;;1.38;1.05;;;9.60;89.00;;;;;;2077081;28;20227;-60
2023/03/23 03:49:46;;;;;;;1.10;1.00;;;9.50;89.20;;;;;;2077056;28;20191;-60
2023/03/23 03:50:56;;;;;;;1.25;1.05;;;9.50;89.60;;;;;;2077026;28;20239;-61
2023/03/23 03:52:02;;;;;;;1.70;1.40;;;9.50;89.60;;;;;;2076802;28;20189;-60
2023/03/23 03:53:05;;;;;;;1.45;1.35;;;9.50;89.50;;;;;;2078164;28;20208;-61
2023/03/23 03:54:10;;;;;;;2.45;1.10;;;9.50;90.00;;;;;;2085145;28;20195;-61
2023/03/23 03:55:16;;;;;;;2.30;1.25;;;9.50;90.00;;;;;;2085318;28;20211;-61
2023/03/23 03:56:23;;;;;;;3.63;1.17;;;9.50;89.60;;;;;;2080870;28;20189;-58
2023/03/23 03:57:29;;;;;;;1.40;1.20;;;9.60;89.50;;;;;;2077407;28;20186;-60
2023/03/23 03:58:35;;;;;;;2.38;1.08;;;9.60;89.50;;;;;;2077397;28;20177;-61
2023/03/23 03:59:41;;;;;;;1.58;1.30;;;9.60;90.00;;;;;;2077295;28;20188;-59
2023/03/23 04:00:50;;;;;;;1.70;1.10;;;9.60;90.00;;;;;;2076964;28;20701;-60
2023/03/23 04:01:55;;;;;;;2.53;1.20;;;9.50;90.30;;;;;;2067963;28;20667;-61
2023/03/23 04:03:01;;;;;;;2.90;1.35;;;9.40;90.80;;;;;;2070459;28;20207;-58
2023/03/23 04:04:06;;;;;;;1.55;1.00;;;9.30;91.00;;;;;;2077230;28;20198;-60
2023/03/23 04:05:10;;;;;;;2.13;1.23;;;9.30;91.60;;;;;;2077522;28;20223;-60
2023/03/23 04:06:17;;;;;;;1.48;1.30;;;9.20;91.70;;;;;;2077036;28;20185;-57
2023/03/23 04:07:25;;;;;;;1.30;1.20;;;9.30;91.40;;;;;;2076945;28;20525;-60
2023/03/23 04:08:32;;;;;;;1.80;1.30;;;9.30;91.40;;;;;;2077079;28;20231;-59
2023/03/23 04:09:38;;;;;;;1.98;1.40;;;9.30;91.20;;;;;;2077320;28;20228;-60
2023/03/23 04:10:43;;;;;;;2.20;1.42;;;9.40;91.10;;;;;;2077328;28;20267;-59
2023/03/23 04:11:49;;;;;;;1.20;1.10;;;9.30;91.10;;;;;;2076996;28;20184;-59
2023/03/23 04:12:55;;;;;;;1.40;1.23;;;9.40;91.10;;;;;;2076905;28;20235;-60
2023/03/23 04:14:02;;;;;;;1.50;1.40;;;9.50;90.70;;;;;;2076860;28;20242;-60
2023/03/23 04:15:07;;;;;;;2.47;1.40;;;9.50;90.60;;;;;;2076940;28;20285;-58
2023/03/23 04:16:09;;;;;;;1.38;1.10;;;9.70;90.40;;;;;;2076485;28;20575;-60
2023/03/23 04:17:16;;;;;;;1.75;1.20;;;9.70;90.30;;;;;;2076908;28;20220;-59
2023/03/23 04:18:23;;;;;;;1.52;1.25;;;9.80;90.90;;;;;;2076903;28;20191;-60
2023/03/23 04:19:32;;;;;;;1.60;1.20;;;9.70;91.20;;;;;;2076894;28;20204;-58
2023/03/23 04:20:39;;;;;;;1.83;1.73;;;9.70;91.10;;;;;;2076755;28;20184;-60
2023/03/23 04:21:48;;;;;;;3.05;1.52;;;9.70;91.10;;;;;;2076490;28;20191;-60
2023/03/23 04:22:54;;;;;;;1.73;1.40;;;9.60;90.70;;;;;;2076660;28;20208;-60
2023/03/23 04:24:00;;;;;;;1.98;1.23;;;9.60;90.70;;;;;;2078673;28;20209;-60
2023/03/23 04:25:06;;;;;;;1.48;1.35;;;9.60;90.80;;;;;;2079391;28;20187;-60
2023/03/23 04:26:12;;;;;;;1.35;1.25;;;9.60;91.00;;;;;;2079448;28;20191;-58
2023/03/23 04:27:18;;;;;;;3.13;1.27;;;9.70;91.20;;;;;;2079447;28;20685;-59
2023/03/23 04:28:25;;;;;;;1.45;1.10;;;9.70;90.90;;;;;;2079444;28;20236;-60
2023/03/23 04:29:30;;;;;;;1.75;1.30;;;9.70;90.80;;;;;;2079484;28;20266;-60
2023/03/23 04:30:36;;;;;;;4.00;1.55;;;9.80;90.70;;;;;;2079443;28;20649;-59
2023/03/23 04:31:44;;;;;;;1.65;1.35;;;9.80;90.80;;;;;;2082414;28;20194;-60
2023/03/23 04:32:51;;;;;;;1.80;1.50;;;9.80;90.60;;;;;;2079499;28;20243;-59
2023/03/23 04:33:59;;;;;;;2.65;1.52;;;9.80;90.20;;;;;;2079530;28;20181;-60
2023/03/23 04:35:06;;;;;;;2.30;1.60;;;9.90;89.70;;;;;;2079234;28;20571;-60
2023/03/23 04:36:09;;;;;;;1.67;1.35;;;9.90;89.60;;;;;;2079517;28;20195;-59
2023/03/23 04:37:15;;;;;;;1.83;1.38;;;9.90;90.20;;;;;;2079386;28;20187;-59
2023/03/23 04:38:24;;;;;;;1.33;1.13;;;9.90;90.30;;;;;;2080893;28;20188;-60
2023/03/23 04:39:33;;;;;;;2.05;1.23;;;9.80;90.40;;;;;;2079693;28;20176;-58
2023/03/23 04:40:42;;;;;;;2.08;1.30;;;9.70;90.70;;;;;;2079764;28;20212;-60
2023/03/23 04:41:47;;;;;;;2.17;1.42;;;9.80;90.80;;;;;;2079298;28;20177;-60
2023/03/23 04:42:57;;;;;;;3.28;1.48;;;9.80;90.70;;;;;;2079543;28;20226;-60
2023/03/23 04:44:04;;;;;;;2.92;1.30;;;9.70;91.00;;;;;;2079332;28;20179;-60
2023/03/23 04:45:09;;;;;;;2.25;1.60;;;9.70;91.00;;;;;;2079275;28;20681;-59
2023/03/23 04:46:17;;;;;;;3.25;1.70;;;9.70;91.10;;;;;;2079533;28;20185;-60
2023/03/23 04:47:29;;;;;;;3.33;1.70;;;9.70;91.40;;;;;;2079610;28;20188;-60
2023/03/23 04:48:35;;;;;;;2.28;1.60;;;9.60;91.80;;;;;;2079678;28;20184;-60
2023/03/23 04:49:42;;;;;;;3.17;1.55;;;9.40;92.30;;;;;;2079205;28;20177;-60
2023/03/23 04:50:48;;;;;;;1.83;1.50;;;9.20;92.90;;;;;;2079467;28;20183;-59
2023/03/23 04:51:53;;;;;;;2.42;1.30;;;9.20;93.40;;;;;;2078925;28;20190;-59
2023/03/23 04:53:03;;;;;;;1.52;1.40;;;9.10;93.60;;;;;;2079552;28;20295;-60
2023/03/23 04:54:08;;;;;;;2.63;1.38;;;9.10;93.70;;;;;;2079559;28;20199;-57
2023/03/23 04:55:09;;;;;;;2.60;1.53;;;9.00;93.60;;;;;;2079599;28;20215;-60
2023/03/23 04:56:15;;;;;;;1.95;1.40;;;9.00;93.70;;;;;;2079466;28;20660;-60
2023/03/23 04:57:22;;;;;;;1.70;1.58;;;8.90;94.70;;;;;;2079322;28;20196;-59
2023/03/23 04:58:29;;;;;;;2.70;1.70;;;8.80;94.80;;;;;;2079250;28;20192;-60
2023/03/23 04:59:34;;;;;;;2.25;1.50;;;8.80;94.60;;;;;;2079277;28;20191;-60
2023/03/23 05:00:43;;;;;;;2.55;1.58;;;8.70;94.30;;;;;;2079706;28;20616;-60
2023/03/23 05:01:49;;;;;;;2.33;1.58;;;8.90;94.30;;;;;;2081687;28;20234;-60
2023/03/23 05:02:55;;;;;;;2.08;1.67;;;8.90;94.70;;;;;;2079364;28;20262;-58
2023/03/23 05:04:00;;;;;;;3.15;1.40;;;9.00;94.20;;;;;;2079217;28;20221;-59
2023/03/23 05:05:08;;;;;;;2.70;1.92;;;9.00;93.90;;;;;;2079161;28;20274;-60
2023/03/23 05:06:10;;;;;;;2.20;1.60;;;9.00;94.20;;;;;;2079316;28;20250;-60
2023/03/23 05:07:16;;;;;;;3.88;1.77;;;9.10;93.90;;;;;;2079356;28;20179;-61
2023/03/23 05:08:26;;;;;;;2.55;1.52;;;9.00;93.70;;;;;;2079098;28;20303;-59
2023/03/23 05:09:32;;;;;;;2.72;1.83;;;9.00;93.50;;;;;;2079374;28;20262;-60
2023/03/23 05:10:38;;;;;;;2.33;1.48;;;9.00;93.50;;;;;;2079145;28;20297;-60
2023/03/23 05:11:43;;;;;;;2.00;1.60;;;9.10;93.30;;;;;;2078949;28;20666;-61
2023/03/23 05:12:49;;;;;;;3.58;1.80;;;9.10;93.60;;;;;;2079137;28;20216;-58
2023/03/23 05:13:55;;;;;;;1.90;1.60;;;9.10;93.40;;;;;;2079299;28;20187;-60
2023/03/23 05:15:01;;;;;;;2.08;1.60;;;9.20;92.90;;;;;;2079053;28;20204;-58
2023/03/23 05:16:06;;;;;;;1.92;1.75;;;9.30;92.90;;;;;;2079028;28;20633;-60
2023/03/23 05:17:09;;;;;;;1.60;1.50;;;9.40;92.70;;;;;;2082628;28;20246;-60
2023/03/23 05:18:16;;;;;;;2.38;1.60;;;9.40;93.30;;;;;;2079213;28;20177;-60
2023/03/23 05:19:22;;;;;;;2.58;1.55;;;9.30;93.50;;;;;;2079041;28;20569;-60
2023/03/23 05:20:29;;;;;;;3.42;1.50;;;9.30;93.20;;;;;;2079408;28;20197;-60
2023/03/23 05:21:35;;;;;;;1.70;1.48;;;9.30;93.90;;;;;;2079272;28;20174;-60
2023/03/23 05:22:43;;;;;;;2.42;1.50;;;9.30;93.50;;;;;;2079499;28;20225;-58
2023/03/23 05:23:54;;;;;;;2.42;1.50;;;9.30;93.50;;;;;;2079691;28;20191;-59
2023/03/23 05:25:03;;;;;;;2.10;1.55;;;9.40;92.60;;;;;;2079136;28;20615;-60
2023/03/23 05:26:06;;;;;;;2.40;1.52;;;9.30;92.80;;;;;;2079161;28;20189;-60
2023/03/23 05:27:10;;;;;;;2.10;1.40;;;9.40;92.80;;;;;;2079139;28;20780;-58
2023/03/23 05:28:16;;;;;;;1.80;1.40;;;9.40;92.40;;;;;;2079190;28;20615;-57
2023/03/23 05:29:23;;;;;;;2.38;1.40;;;9.40;92.00;;;;;;2079116;28;20196;-59
2023/03/23 05:30:29;;;;;;;1.75;1.38;;;9.50;91.10;;;;;;2079198;28;20595;-60
2023/03/23 05:31:35;;;;;;;1.80;1.38;;;9.60;90.10;;;;;;2078922;28;20543;-60
2023/03/23 05:32:41;;;;;;;3.33;1.48;;;9.70;91.00;;;;;;2079077;28;20304;-60
2023/03/23 05:33:47;;;;;;;2.00;1.25;;;9.80;90.70;;;;;;2079024;28;20681;-58
2023/03/23 05:34:53;;;;;;;3.25;1.58;;;9.90;90.00;;;;;;2079218;28;20265;-60
2023/03/23 05:35:58;;;;;;;3.17;1.35;;;9.80;88.00;;;;;;2076997;28;20216;-60
2023/03/23 05:37:04;;;;;;;2.17;1.50;;;10.00;87.30;;;;;;2077890;28;20673;-59
2023/03/23 05:38:09;;;;;;;2.00;1.55;;;10.10;86.80;;;;;;2077806;28;20178;-59
2023/03/23 05:39:16;;;;;;;3.88;1.75;;;10.20;84.60;;;;;;2078103;28;20247;-58
2023/03/23 05:40:23;;;;;;;2.30;1.50;;;10.20;84.00;;;;;;2078379;28;20201;-58
2023/03/23 05:41:29;;;;;;;3.40;1.65;;;10.30;84.30;;;;;;2078075;28;20213;-61
2023/03/23 05:42:35;;;;;;;3.55;1.40;;;10.40;83.90;;;;;;2078154;28;20209;-61
2023/03/23 05:43:41;;;;;;;1.80;1.50;;;10.40;82.10;;;;;;2078016;28;20180;-60
2023/03/23 05:44:47;;;;;;;1.92;1.50;;;10.50;82.50;;;;;;2078043;28;20181;-60
2023/03/23 05:45:53;;;;;;;2.10;1.20;;;10.60;81.80;;;;;;2077427;28;20698;-61
2023/03/23 05:46:59;;;;;;;4.20;1.52;;;10.90;81.30;;;;;;2081779;28;20177;-57
2023/03/23 05:48:04;;;;;;;1.92;1.58;;;10.80;79.90;;;;;;2081487;28;20551;-60
2023/03/23 05:49:09;;;;;;;2.13;1.70;;;10.80;79.80;;;;;;2073266;28;20192;-59
2023/03/23 05:50:16;;;;;;;3.05;1.80;;;11.00;78.70;;;;;;2073679;28;20190;-57
2023/03/23 05:51:21;;;;;;;2.03;1.25;;;11.10;77.90;;;;;;2081796;28;20288;-56
2023/03/23 05:52:27;;;;;;;1.75;1.65;;;11.20;77.20;;;;;;2079787;28;20189;-59
2023/03/23 05:53:33;;;;;;;1.98;1.42;;;11.30;76.50;;;;;;2081554;28;20196;-59
2023/03/23 05:54:39;;;;;;;2.13;1.50;;;11.40;76.20;;;;;;2083723;28;20217;-58
2023/03/23 05:55:45;;;;;;;1.40;1.30;;;11.50;76.00;;;;;;2078560;28;20264;-58
2023/03/23 05:56:50;;;;;;;2.67;2.05;;;11.60;75.60;;;;;;2078167;28;20189;-59
2023/03/23 05:57:56;;;;;;;2.40;2.22;;;11.60;74.10;;;;;;2078324;28;20186;-57
2023/03/23 05:59:02;;;;;;;2.38;2.17;;;11.70;73.80;;;;;;2078353;28;20210;-59
2023/03/23 06:00:19;;;;;;;2.00;1.80;;;11.80;73.50;;;;;;2078417;28;20193;-61
2023/03/23 06:01:25;;;;;;;2.10;1.30;;;11.90;73.50;;;;;;2069077;28;20541;-58